Time;durP1;ratioP1;P1;durP2;ratioP2;P2;SDS_P1;SDS_P2;PMS_P1;PMS_P2;Temp;Humidity;BMP_temperature;BMP_pressure;BME280_temperature;BME280_humidity;BME280_pressure;Samples;Min_cycle;Max_cycle;Signal;HPM_P1;HPM_P2
2022/12/27 00:01:50;;;;;;;3.65;2.63;;;;;;;-4.81;70.84;146142.28;5053413;28;20209;-63
2022/12/27 00:04:16;;;;;;;3.92;2.95;;;;;;;-5.06;72.59;146082.78;5059883;28;20314;-63
2022/12/27 00:06:42;;;;;;;3.13;2.50;;;;;;;-4.93;72.70;146113.13;5044129;28;20029;-63
2022/12/27 00:09:07;;;;;;;3.75;3.05;;;;;;;-5.07;71.62;146080.22;5063493;28;20028;-62
2022/12/27 00:11:33;;;;;;;4.28;2.90;;;;;;;-4.86;73.29;146130.84;5049359;28;20029;-63
2022/12/27 00:14:03;;;;;;;2.78;2.58;;;;;;;-5.02;71.70;146091.63;5053966;28;20020;-63
2022/12/27 00:16:29;;;;;;;3.60;3.05;;;;;;;-5.05;73.75;146085.28;5072416;28;20136;-62
2022/12/27 00:18:55;;;;;;;3.08;2.55;;;;;;;-4.82;73.32;146140.97;5045096;28;20115;-62
2022/12/27 00:21:22;;;;;;;3.80;3.10;;;;;;;-4.96;72.87;146105.53;5064227;28;20043;-63
2022/12/27 00:23:51;;;;;;;3.67;2.90;;;;;;;-5.28;73.11;146027.09;5062809;28;20108;-62
2022/12/27 00:26:19;;;;;;;3.83;3.10;;;;;;;-5.49;73.05;145976.47;5051409;28;20021;-64
2022/12/27 00:28:45;;;;;;;3.38;3.08;;;;;;;-5.12;73.91;146067.56;5051990;28;20025;-62
2022/12/27 00:31:11;;;;;;;4.38;2.72;;;;;;;-4.93;72.88;146113.13;5060094;28;20317;-63
2022/12/27 00:33:39;;;;;;;3.22;2.92;;;;;;;-5.06;73.71;146082.78;5043754;28;20025;-62
2022/12/27 00:36:07;;;;;;;3.97;3.17;;;;;;;-5.04;74.20;146086.56;5043494;28;20306;-63
2022/12/27 00:38:33;;;;;;;3.28;2.97;;;;;;;-5.09;72.87;146075.19;5058022;28;20017;-63
2022/12/27 00:40:59;;;;;;;3.33;2.80;;;;;;;-5.17;73.19;146054.94;5053569;28;20317;-63
2022/12/27 00:43:25;;;;;;;3.72;3.00;;;;;;;-4.94;73.13;146111.88;5048738;28;20047;-63
2022/12/27 00:45:51;;;;;;;3.95;2.67;;;;;;;-5.00;73.46;146096.69;5063274;28;20025;-64
2022/12/27 00:48:17;;;;;;;3.25;2.80;;;;;;;-4.76;74.67;146156.19;5043520;28;20025;-63
2022/12/27 00:50:43;;;;;;;3.08;2.78;;;;;;;-4.73;74.34;146162.50;5059192;28;20021;-64
2022/12/27 00:53:10;;;;;;;3.10;2.80;;;;;;;-4.98;73.55;146101.75;5052055;28;20025;-65
2022/12/27 00:55:36;;;;;;;5.07;3.10;;;;;;;-4.81;74.05;146142.28;5059821;28;20239;-63
2022/12/27 00:58:02;;;;;;;7.07;3.28;;;;;;;-5.12;74.30;146067.56;5061486;28;20032;-64
2022/12/27 01:00:29;;;;;;;3.50;3.20;;;;;;;-5.08;76.07;146076.44;5043222;28;20021;-63
2022/12/27 01:02:54;;;;;;;3.22;2.80;;;;;;;-5.38;76.36;146003.03;5060503;28;20021;-63
2022/12/27 01:05:21;;;;;;;4.25;3.50;;;;;;;-5.27;77.03;146030.88;5050698;28;20318;-63
2022/12/27 01:07:46;;;;;;;3.80;3.40;;;;;;;-5.10;75.07;146071.34;5051231;28;20088;-63
2022/12/27 01:10:12;;;;;;;4.35;3.00;;;;;;;-5.00;75.19;146095.41;5060252;28;20187;-63
2022/12/27 01:12:38;;;;;;;4.93;3.80;;;;;;;-4.85;75.64;146134.63;5043134;28;20032;-63
2022/12/27 01:15:05;;;;;;;4.30;3.50;;;;;;;-4.97;75.62;146103.00;5061454;28;20103;-63
2022/12/27 01:17:30;;;;;;;5.28;4.05;;;;;;;-5.31;74.90;146020.75;5050233;28;20029;-64
2022/12/27 01:19:56;;;;;;;6.40;4.90;;;;;;;-5.11;75.51;146068.84;5042999;28;20037;-63
2022/12/27 01:22:22;;;;;;;7.72;5.30;;;;;;;-4.98;75.79;146100.50;5044745;28;20025;-63
2022/12/27 01:24:47;;;;;;;7.28;5.43;;;;;;;-4.85;75.60;146133.38;5043147;28;20029;-63
2022/12/27 01:27:13;;;;;;;8.23;6.50;;;;;;;-4.69;75.70;146173.91;5052964;28;20052;-63
2022/12/27 01:29:39;;;;;;;11.27;8.05;;;;;;;-4.70;74.04;146170.13;5052366;28;20198;-63
2022/12/27 01:32:04;;;;;;;11.10;8.07;;;;;;;-4.99;74.22;146099.19;5046948;28;20089;-63
2022/12/27 01:34:30;;;;;;;9.70;8.68;;;;;;;-4.85;74.72;146133.38;5054330;28;20049;-62
2022/12/27 01:36:56;;;;;;;9.75;8.35;;;;;;;-4.80;74.45;146146.06;5060293;28;20040;-63
2022/12/27 01:39:21;;;;;;;9.05;8.15;;;;;;;-5.12;75.60;146067.56;5046997;28;20308;-62
2022/12/27 01:44:47;;;;;;;10.57;8.30;;;;;;;-4.98;74.65;146100.50;5052924;28;20072;-63
2022/12/27 01:47:38;;;;;;;9.70;8.20;;;;;;;-5.51;76.11;145971.41;5057864;28;20044;-63
2022/12/27 01:50:22;;;;;;;11.85;8.80;;;;;;;-5.45;76.37;145985.34;5056782;28;20072;-63
2022/12/27 01:53:24;;;;;;;9.50;8.52;;;;;;;-5.08;76.02;146076.44;5054427;28;20036;-62
2022/12/27 01:56:07;;;;;;;9.90;8.05;;;;;;;-5.18;75.21;146052.38;5080476;28;20194;-62
2022/12/27 01:58:40;;;;;;;11.30;8.68;;;;;;;-5.05;75.97;146085.28;5066242;28;20309;-63
2022/12/27 02:01:10;;;;;;;9.98;7.97;;;;;;;-4.82;74.39;146140.97;5064657;28;20021;-63
2022/12/27 02:03:39;;;;;;;8.75;7.05;;;;;;;-4.98;74.11;146100.50;5046836;28;20333;-62
2022/12/27 02:06:08;;;;;;;6.90;5.60;;;;;;;-5.30;75.27;146022.00;5053196;28;20194;-62
2022/12/27 02:08:45;;;;;;;7.53;6.72;;;;;;;-5.06;76.55;146081.47;5046328;28;20053;-63
2022/12/27 02:11:12;;;;;;;8.45;6.00;;;;;;;-4.94;74.46;146110.63;5056983;28;20029;-61
2022/12/27 02:13:42;;;;;;;6.63;5.32;;;;;;;-5.25;74.98;146034.69;5060363;28;20029;-62
2022/12/27 02:16:18;;;;;;;7.32;5.03;;;;;;;-5.34;76.33;146011.88;5047948;28;20040;-62
2022/12/27 02:18:45;;;;;;;5.72;5.15;;;;;;;-5.01;75.72;146094.16;5066213;28;20033;-66
2022/12/27 02:21:48;;;;;;;6.28;4.97;;;;;;;-4.90;75.58;146122.00;5047158;28;20084;-64
2022/12/27 02:24:25;;;;;;;5.68;5.07;;;;;;;-4.89;75.49;146124.56;5065062;28;20043;-64
2022/12/27 02:27:05;;;;;;;5.72;4.32;;;;;;;-5.06;74.73;146082.78;5049869;28;20025;-64
2022/12/27 02:29:55;;;;;;;5.03;4.28;;;;;;;-4.82;74.91;146140.97;5059471;28;20075;-64
2022/12/27 02:32:45;;;;;;;4.70;4.18;;;;;;;-5.03;75.77;146090.38;5052975;28;20247;-63
2022/12/27 02:35:34;;;;;;;4.47;4.07;;;;;;;-4.84;75.69;146135.94;5055271;28;20033;-63
2022/12/27 02:38:11;;;;;;;4.32;3.92;;;;;;;-4.85;74.59;146133.38;5065307;28;20028;-63
2022/12/27 02:55:25;;;;;;;5.45;3.80;;;;;;;-5.23;75.47;146041.00;5058221;28;20032;-63
2022/12/27 02:58:35;;;;;;;7.95;4.75;;;;;;;-4.94;76.17;146110.63;5066071;28;20024;-63
2022/12/27 03:04:47;;;;;;;6.95;4.13;;;;;;;-4.92;76.14;146115.66;5065223;28;20036;-62
2022/12/27 03:07:21;;;;;;;4.82;3.30;;;;;;;-5.25;76.54;146034.69;5063207;28;20029;-63
2022/12/27 03:16:07;;;;;;;4.85;3.50;;;;;;;-5.14;76.40;146062.53;5045369;28;20493;-63
2022/12/27 03:18:57;;;;;;;4.95;3.92;;;;;;;-5.02;76.27;146091.63;5050558;28;20036;-63
2022/12/27 03:27:19;;;;;;;4.35;3.30;;;;;;;-5.21;76.15;146046.06;5064937;28;20093;-63
2022/12/27 03:35:25;;;;;;;5.30;3.83;;;;;;;-5.09;76.19;146075.19;5053522;28;20214;-63
2022/12/27 03:38:02;;;;;;;5.05;3.88;;;;;;;-5.14;76.53;146062.53;5051973;28;20094;-63
2022/12/27 03:40:39;;;;;;;5.05;4.22;;;;;;;-5.18;76.76;146051.13;5060590;28;20092;-63
2022/12/27 03:43:13;;;;;;;6.60;4.53;;;;;;;-5.22;76.55;146042.25;5057055;28;20029;-63
2022/12/27 03:46:33;;;;;;;5.78;4.85;;;;;;;-5.22;76.42;146042.25;5064479;28;20032;-63
2022/12/27 03:49:26;;;;;;;6.95;4.97;;;;;;;-5.04;76.62;146087.81;5012218;28;20088;-62
2022/12/27 03:52:02;;;;;;;6.20;4.72;;;;;;;-5.02;75.88;146091.63;5064412;28;20036;-63
2022/12/27 03:54:34;;;;;;;5.35;4.70;;;;;;;-5.23;76.72;146039.72;5051497;28;20020;-63
2022/12/27 03:57:04;;;;;;;;;;;;;;;-5.19;75.66;146049.84;5064650;28;20021;-64
2022/12/27 03:59:30;;;;;;;5.28;4.72;;;;;;;-5.26;77.50;146032.13;5047225;28;19920;-62
2022/12/27 04:01:56;;;;;;;6.03;4.55;;;;;;;-5.37;78.59;146005.59;5051699;28;20021;-65
2022/12/27 04:04:22;;;;;;;4.90;4.50;;;;;;;-5.17;76.83;146054.94;5060169;28;20059;-64
2022/12/27 04:06:48;;;;;;;5.15;4.63;;;;;;;-5.20;77.44;146047.34;5046194;28;20314;-62
2022/12/27 04:36:36;;;;;;;5.35;4.28;;;;;;;-5.00;75.86;146095.41;5043575;28;20380;-63
2022/12/27 04:39:03;;;;;;;5.15;4.43;;;;;;;-4.88;75.34;146125.81;5059475;28;20048;-62
2022/12/27 04:55:18;;;;;;;4.38;3.97;;;;;;;-5.45;78.72;145986.59;5055886;28;20118;-63
2022/12/27 04:57:43;;;;;;;5.95;4.15;;;;;;;-5.50;78.49;145972.66;5048045;28;20095;-66
2022/12/27 05:02:55;;;;;;;6.22;3.90;;;;;;;-5.31;77.91;146019.50;5057151;28;20271;-66
2022/12/27 05:05:21;;;;;;;6.88;4.88;;;;;;;-5.16;77.77;146057.44;5059723;28;20037;-66
2022/12/27 05:15:59;;;;;;;5.88;4.38;;;;;;;-5.48;78.38;145979.00;5054267;28;20069;-65
2022/12/27 05:18:26;;;;;;;9.40;4.60;;;;;;;-5.23;78.23;146041.00;5050710;28;20037;-67
2022/12/27 05:20:52;;;;;;;6.32;4.90;;;;;;;-5.16;76.71;146057.44;5057353;28;20025;-66
2022/12/27 05:26:01;;;;;;;6.35;4.45;;;;;;;-5.28;78.72;146027.09;5053276;28;20101;-67
2022/12/27 05:28:27;;;;;;;6.60;5.25;;;;;;;-5.34;77.99;146013.19;5062641;28;20036;-67
2022/12/27 05:30:52;;;;;;;5.57;4.97;;;;;;;-5.50;78.38;145973.97;5061653;28;20029;-67
2022/12/27 05:33:18;;;;;;;7.10;5.50;;;;;;;-5.46;79.79;145984.03;5061657;28;20036;-66
2022/12/27 05:35:44;;;;;;;6.78;5.70;;;;;;;-5.25;80.01;146034.69;5062690;28;20064;-66
2022/12/27 05:38:09;;;;;;;6.72;5.32;;;;;;;-5.13;79.72;146063.78;5054013;28;20026;-66
2022/12/27 05:40:35;;;;;;;6.15;4.88;;;;;;;-5.29;78.46;146025.78;5042711;28;20033;-67
2022/12/27 05:43:02;;;;;;;5.55;4.97;;;;;;;-5.13;78.46;146063.78;5042766;28;20053;-66
2022/12/27 05:45:28;;;;;;;6.70;5.55;;;;;;;-5.40;79.19;145997.97;5061872;28;20194;-67
2022/12/27 05:47:55;;;;;;;5.78;5.10;;;;;;;-5.20;79.56;146047.34;5047900;28;20328;-65
2022/12/27 05:50:20;;;;;;;7.00;5.60;;;;;;;-5.08;78.09;146076.44;5042202;28;20034;-66
2022/12/27 05:52:46;;;;;;;7.97;6.10;;;;;;;-5.11;79.05;146070.09;5045894;28;20025;-67
2022/12/27 05:55:12;;;;;;;7.55;6.18;;;;;;;-5.28;78.41;146028.34;5049012;28;20021;-65
2022/12/27 05:57:38;;;;;;;6.95;5.45;;;;;;;-5.30;77.99;146022.00;5042692;28;20030;-66
2022/12/27 06:00:05;;;;;;;7.88;5.70;;;;;;;-5.24;78.59;146037.22;5041008;28;20041;-65
2022/12/27 06:02:30;;;;;;;10.77;7.20;;;;;;;-5.39;78.82;146001.78;5043086;28;20333;-67
2022/12/27 06:04:56;;;;;;;7.32;6.63;;;;;;;-5.21;79.57;146046.06;5049010;28;20033;-66
2022/12/27 06:07:21;;;;;;;9.73;6.82;;;;;;;-5.25;80.07;146035.94;5042615;28;20021;-66
2022/12/27 06:09:47;;;;;;;7.47;6.18;;;;;;;-5.38;79.71;146004.28;5042388;28;20021;-65
2022/12/27 06:12:13;;;;;;;7.78;6.97;;;;;;;-5.43;80.49;145990.38;5059525;28;20040;-65
2022/12/27 06:14:40;;;;;;;10.90;7.32;;;;;;;-5.44;80.86;145989.13;5053207;28;20057;-66
2022/12/27 06:17:05;;;;;;;7.30;6.57;;;;;;;-5.37;79.02;146005.59;5053461;28;20025;-65
2022/12/27 06:19:31;;;;;;;9.52;7.55;;;;;;;-5.23;79.54;146041.00;5055858;28;20100;-66
2022/12/27 06:21:57;;;;;;;7.28;6.20;;;;;;;-5.57;80.44;145956.25;5056842;28;20033;-66
2022/12/27 06:24:22;;;;;;;8.02;6.80;;;;;;;-5.59;80.79;145951.16;5058201;28;20025;-66
2022/12/27 06:26:48;;;;;;;8.65;7.72;;;;;;;-5.29;79.85;146025.78;5053486;28;20116;-66
2022/12/27 06:29:13;;;;;;;13.02;7.10;;;;;;;-5.56;81.40;145958.75;5052940;28;20020;-66
2022/12/27 06:31:39;;;;;;;9.88;8.30;;;;;;;-5.22;81.11;146042.25;5058070;28;20098;-66
2022/12/27 06:34:05;;;;;;;10.57;7.80;;;;;;;-5.18;80.42;146052.38;5056653;28;20012;-68
2022/12/27 06:36:31;;;;;;;8.30;7.43;;;;;;;-5.06;81.07;146082.78;5045945;28;20093;-67
2022/12/27 06:38:58;;;;;;;9.40;6.60;;;;;;;-5.15;79.52;146058.72;5047895;28;20052;-66
2022/12/27 06:41:25;;;;;;;7.55;6.50;;;;;;;-4.97;80.55;146103.00;5055794;28;20032;-66
2022/12/27 06:43:55;;;;;;;8.30;5.75;;;;;;;-5.44;80.21;145989.13;5060444;28;20068;-65
2022/12/27 06:46:24;;;;;;;7.97;6.28;;;;;;;-5.39;80.93;146001.78;5046827;28;20092;-65
2022/12/27 06:48:50;;;;;;;8.55;6.65;;;;;;;-5.14;81.39;146061.28;5065813;28;20056;-64
2022/12/27 06:51:18;;;;;;;7.20;6.30;;;;;;;-5.15;79.61;146059.97;5048719;28;20032;-66
2022/12/27 06:53:43;;;;;;;7.20;6.22;;;;;;;-5.13;80.25;146065.06;5057380;28;20035;-65
2022/12/27 06:56:12;;;;;;;7.70;6.13;;;;;;;-5.18;79.90;146052.38;5051853;28;20045;-65
2022/12/27 06:58:38;;;;;;;8.35;6.43;;;;;;;-5.23;80.36;146041.00;5053829;28;20241;-65
2022/12/27 07:01:24;;;;;;;6.53;5.88;;;;;;;-5.16;81.39;146057.44;5053020;28;20028;-65
2022/12/27 07:03:55;;;;;;;6.68;5.80;;;;;;;-5.25;81.24;146034.69;5049482;28;20269;-65
2022/12/27 07:06:22;;;;;;;8.50;6.20;;;;;;;-5.26;81.12;146032.13;5054736;28;20029;-65
2022/12/27 07:08:49;;;;;;;6.53;5.93;;;;;;;-5.27;80.65;146029.63;5051330;28;20291;-65
2022/12/27 07:11:16;;;;;;;6.93;5.65;;;;;;;-5.38;81.99;146003.03;5053383;28;20059;-65
2022/12/27 07:13:44;;;;;;;5.97;4.90;;;;;;;-5.61;80.73;145947.38;5061200;28;20030;-65
2022/12/27 07:16:12;;;;;;;9.23;5.70;;;;;;;-5.67;80.40;145930.91;5064170;28;20036;-67
2022/12/27 07:18:39;;;;;;;7.07;5.03;;;;;;;-5.42;81.74;145992.91;5045063;28;20421;-66
2022/12/27 07:21:10;;;;;;;8.23;6.28;;;;;;;-5.30;81.97;146022.00;5043233;28;20072;-66
2022/12/27 07:23:36;;;;;;;9.77;5.45;;;;;;;-5.38;81.87;146004.28;5044759;28;20269;-66
2022/12/27 07:26:04;;;;;;;7.63;5.10;;;;;;;-5.37;80.71;146005.59;5051414;28;20029;-67
2022/12/27 07:28:30;;;;;;;6.75;5.93;;;;;;;-5.60;80.60;145949.91;5062592;28;20033;-66
2022/12/27 07:30:56;;;;;;;6.68;5.30;;;;;;;-5.21;81.73;146044.81;5044771;28;20310;-65
2022/12/27 07:33:22;;;;;;;6.78;5.47;;;;;;;-5.38;82.21;146004.28;5044443;28;20191;-66
2022/12/27 07:35:48;;;;;;;7.72;5.50;;;;;;;-5.30;81.36;146023.31;5057092;28;20040;-65
2022/12/27 07:38:13;;;;;;;6.22;5.32;;;;;;;-5.39;81.00;146000.50;5056180;28;20214;-66
2022/12/27 07:40:39;;;;;;;7.15;6.10;;;;;;;-5.23;80.53;146039.72;5047740;28;20500;-66
2022/12/27 07:43:04;;;;;;;8.40;6.30;;;;;;;-5.41;81.39;145996.72;5064336;28;20252;-66
2022/12/27 07:45:31;;;;;;;8.60;6.65;;;;;;;-5.29;81.41;146024.53;5045705;28;20076;-67
2022/12/27 07:47:56;;;;;;;11.07;6.88;;;;;;;-5.37;82.55;146005.59;5057285;28;20052;-67
2022/12/27 07:50:22;;;;;;;8.65;6.32;;;;;;;-5.29;81.22;146024.53;5054953;28;20063;-65
2022/12/27 07:52:47;;;;;;;7.95;6.75;;;;;;;-5.15;81.40;146059.97;5047582;28;20052;-65
2022/12/27 07:55:13;;;;;;;10.68;7.40;;;;;;;-5.16;81.62;146056.19;5064232;28;20327;-66
2022/12/27 07:57:38;;;;;;;9.93;6.97;;;;;;;-5.08;82.35;146077.69;5059538;28;20030;-65
2022/12/27 08:00:05;;;;;;;11.32;8.00;;;;;;;-5.17;82.55;146053.63;5045742;28;20025;-66
2022/12/27 08:02:30;;;;;;;7.88;5.65;;;;;;;-5.40;81.28;145999.25;5044237;28;20029;-68
2022/12/27 08:04:56;;;;;;;10.02;6.10;;;;;;;-5.40;82.79;145997.97;5049540;28;20047;-67
2022/12/27 08:07:23;;;;;;;10.15;7.20;;;;;;;-5.53;83.33;145966.34;5063486;28;20089;-68
2022/12/27 08:09:49;;;;;;;10.00;7.15;;;;;;;-5.22;84.33;146043.50;5044250;28;20025;-68
2022/12/27 08:12:14;;;;;;;11.50;8.05;;;;;;;-5.14;83.34;146061.28;5060480;28;20316;-67
2022/12/27 08:14:41;;;;;;;9.30;7.60;;;;;;;-5.09;82.50;146075.19;5063822;28;20118;-68
2022/12/27 08:17:15;;;;;;;10.95;8.50;;;;;;;-4.88;82.85;146125.81;5055699;28;20044;-68
2022/12/27 08:19:40;;;;;;;9.07;7.68;;;;;;;-4.83;82.30;146137.19;5046825;28;20031;-68
2022/12/27 08:22:09;;;;;;;10.45;7.80;;;;;;;-4.92;82.02;146116.91;5058691;28;20046;-67
2022/12/27 08:24:35;;;;;;;10.18;8.18;;;;;;;-4.92;83.14;146116.91;5062768;28;20105;-68
2022/12/27 08:27:00;;;;;;;9.98;8.18;;;;;;;-4.96;84.12;146106.84;5049608;28;20021;-67
2022/12/27 08:29:26;;;;;;;11.73;8.48;;;;;;;-4.79;83.25;146148.56;5053097;28;20104;-68
2022/12/27 08:31:51;;;;;;;8.93;7.75;;;;;;;-4.90;83.36;146120.75;5059300;28;20210;-68
2022/12/27 08:34:17;;;;;;;11.13;8.30;;;;;;;-4.78;83.52;146151.09;5043687;28;20044;-68
2022/12/27 08:36:43;;;;;;;9.25;7.50;;;;;;;-4.79;83.39;146147.31;5063063;28;20317;-67
2022/12/27 08:39:10;;;;;;;8.95;7.97;;;;;;;-4.90;83.49;146120.75;5047191;28;20030;-68
2022/12/27 08:41:36;;;;;;;9.75;8.10;;;;;;;-4.72;82.28;146166.34;5054732;28;20105;-67
2022/12/27 08:44:02;;;;;;;11.18;7.50;;;;;;;-4.91;83.20;146118.22;5057681;28;20033;-67
2022/12/27 08:46:27;;;;;;;10.10;8.48;;;;;;;-4.90;83.47;146122.00;5049097;28;20067;-66
2022/12/27 08:48:53;;;;;;;10.10;7.95;;;;;;;-4.88;82.09;146127.06;5043565;28;20025;-67
2022/12/27 08:51:18;;;;;;;10.73;8.23;;;;;;;-4.88;83.16;146127.06;5059480;28;20032;-67
2022/12/27 08:53:44;;;;;;;14.02;9.10;;;;;;;-4.97;82.55;146104.28;5052894;28;20037;-66
2022/12/27 08:56:09;;;;;;;9.40;8.32;;;;;;;-4.93;82.73;146114.41;5063258;28;20037;-66
2022/12/27 08:58:35;;;;;;;10.18;7.53;;;;;;;-4.99;83.49;146099.19;5060140;28;20029;-66
2022/12/27 09:01:08;;;;;;;9.95;8.25;;;;;;;-4.91;83.42;146118.22;5043447;28;20109;-66
2022/12/27 09:03:34;;;;;;;9.85;8.02;;;;;;;-5.06;82.77;146082.78;5061393;28;20032;-68
2022/12/27 09:06:14;;;;;;;14.55;10.05;;;;;;;-4.79;83.41;146148.56;5049444;28;20401;-67
2022/12/27 09:08:41;;;;;;;13.55;9.68;;;;;;;-4.69;84.16;146173.91;5053821;28;20329;-67
2022/12/27 09:11:12;;;;;;;12.95;9.55;;;;;;;-5.04;84.79;146086.56;5056662;28;20037;-67
2022/12/27 09:13:38;;;;;;;10.20;8.30;;;;;;;-4.87;84.32;146128.34;5045724;28;20053;-68
2022/12/27 09:16:06;;;;;;;11.60;9.10;;;;;;;-5.08;85.07;146077.69;5063073;28;20055;-69
2022/12/27 09:18:31;;;;;;;13.05;8.82;;;;;;;-4.96;86.28;146105.53;5062907;28;20028;-68
2022/12/27 09:21:03;;;;;;;13.98;9.55;;;;;;;-4.97;85.84;146103.00;5049918;28;20025;-68
2022/12/27 09:23:29;;;;;;;12.88;9.50;;;;;;;-4.90;85.90;146120.75;5049132;28;20033;-67
2022/12/27 09:25:54;;;;;;;13.70;9.25;;;;;;;-4.90;86.65;146120.75;5043211;28;20029;-68
2022/12/27 09:28:20;;;;;;;13.23;10.07;;;;;;;-4.88;86.81;146125.81;5042813;28;20028;-67
2022/12/27 09:30:46;;;;;;;12.55;9.82;;;;;;;-4.70;86.44;146171.38;5043059;28;20032;-67
2022/12/27 09:33:11;;;;;;;12.13;9.43;;;;;;;-4.79;86.08;146148.56;5062192;28;20071;-67
2022/12/27 09:35:37;;;;;;;12.65;9.50;;;;;;;-4.81;85.04;146142.28;5054138;28;20026;-67
2022/12/27 09:38:02;;;;;;;11.98;9.30;;;;;;;-4.89;86.68;146123.25;5048809;28;20238;-68
2022/12/27 09:40:28;;;;;;;13.57;10.50;;;;;;;-4.78;86.19;146151.09;5062706;28;20033;-69
2022/12/27 09:43:13;;;;;;;13.93;10.15;;;;;;;-4.74;85.03;146160.00;5063388;28;20053;-68
2022/12/27 09:45:45;;;;;;;12.25;10.73;;;;;;;-4.64;85.51;146185.31;5062614;28;20108;-68
2022/12/27 09:48:16;;;;;;;13.77;10.32;;;;;;;-4.64;84.61;146185.31;5063804;28;20021;-69
2022/12/27 09:50:50;;;;;;;14.48;10.68;;;;;;;-4.73;86.03;146162.50;5066761;28;20024;-68
2022/12/27 09:53:51;;;;;;;12.98;10.13;;;;;;;-4.58;85.10;146199.22;5066537;28;20383;-67
2022/12/27 09:56:26;;;;;;;13.18;10.40;;;;;;;-4.73;85.87;146162.50;5039900;28;20314;-68
2022/12/27 09:58:56;;;;;;;17.98;11.10;;;;;;;-4.57;85.11;146203.03;5050379;28;20257;-68
2022/12/27 10:01:30;;;;;;;14.13;10.98;;;;;;;-4.54;84.13;146210.63;5066391;28;20096;-69
2022/12/27 10:03:57;;;;;;;14.88;10.30;;;;;;;-4.71;85.56;146167.59;5057875;28;20033;-69
2022/12/27 10:06:38;;;;;;;12.18;9.60;;;;;;;-4.85;85.18;146134.63;5066191;28;20079;-68
2022/12/27 10:09:25;;;;;;;13.47;10.50;;;;;;;-4.52;84.73;146214.41;5066066;28;20025;-68
2022/12/27 10:11:59;;;;;;;16.20;11.35;;;;;;;-4.71;84.63;146168.81;5065785;28;20221;-69
2022/12/27 10:14:43;;;;;;;15.07;10.38;;;;;;;-4.70;85.61;146170.13;5066129;28;20033;-68
2022/12/27 10:17:14;;;;;;;14.10;10.77;;;;;;;-4.54;84.55;146209.38;5065919;28;20174;-69
2022/12/27 10:20:03;;;;;;;15.13;10.88;;;;;;;-4.56;85.25;146204.28;5066210;28;20238;-69
2022/12/27 10:22:47;;;;;;;16.15;11.32;;;;;;;-4.35;85.35;146256.19;5059742;28;20049;-69
2022/12/27 10:25:16;;;;;;;14.55;11.38;;;;;;;-4.41;85.73;146242.28;5065905;28;20025;-70
2022/12/27 10:27:42;;;;;;;16.40;11.57;;;;;;;-4.31;84.65;146266.34;5066139;28;20059;-69
2022/12/27 10:30:19;;;;;;;17.27;11.30;;;;;;;-4.57;84.69;146201.78;5064604;28;20024;-69
2022/12/27 10:32:45;;;;;;;16.48;10.15;;;;;;;-4.64;85.28;146184.06;5065953;28;20032;-68
2022/12/27 10:35:17;;;;;;;15.15;10.90;;;;;;;-4.59;85.90;146196.69;5064143;28;20033;-68
2022/12/27 10:37:43;;;;;;;18.50;11.77;;;;;;;-4.53;85.23;146211.91;5066208;28;20048;-69
2022/12/27 10:40:44;;;;;;;17.85;12.15;;;;;;;-4.39;86.48;146247.34;5065325;28;20024;-68
2022/12/27 10:43:25;;;;;;;16.67;12.02;;;;;;;-4.36;85.64;146253.66;5045610;28;20025;-68
2022/12/27 10:45:52;;;;;;;17.75;11.85;;;;;;;-4.27;85.17;146275.22;5064587;28;20029;-69
2022/12/27 10:48:23;;;;;;;16.75;12.88;;;;;;;-4.18;85.08;146298.00;5065418;28;20041;-68
2022/12/27 10:50:52;;;;;;;18.85;13.25;;;;;;;-4.09;85.13;146320.81;5065476;28;20099;-69
2022/12/27 10:53:32;;;;;;;15.57;11.73;;;;;;;-4.21;85.01;146290.41;5065538;28;20765;-68
2022/12/27 10:56:17;;;;;;;18.85;11.95;;;;;;;-4.16;84.69;146303.09;5065629;28;20028;-68
2022/12/27 10:58:46;;;;;;;17.15;11.95;;;;;;;-4.44;85.33;146233.44;5062988;28;20024;-67
2022/12/27 11:01:22;;;;;;;15.98;11.70;;;;;;;-4.36;86.04;146254.94;5045499;28;20029;-69
2022/12/27 11:03:48;;;;;;;18.48;13.13;;;;;;;-4.30;86.73;146268.88;5064762;28;20308;-67
2022/12/27 11:06:23;;;;;;;17.65;12.48;;;;;;;-4.28;85.32;146273.94;5065391;28;20190;-69
2022/12/27 11:08:49;;;;;;;19.30;12.85;;;;;;;-4.23;86.56;146285.31;5065347;28;20068;-68
2022/12/27 11:11:26;;;;;;;18.85;13.20;;;;;;;-3.99;86.18;146346.16;5064798;28;20329;-69
2022/12/27 11:13:51;;;;;;;20.27;13.25;;;;;;;-3.89;86.11;146370.22;5065276;28;20025;-69
2022/12/27 11:16:33;;;;;;;19.30;12.52;;;;;;;-4.14;86.59;146308.13;5065033;28;20056;-68
2022/12/27 11:19:00;;;;;;;17.42;12.88;;;;;;;-4.12;87.09;146313.19;5045183;28;20053;-68
2022/12/27 11:21:28;;;;;;;18.42;12.65;;;;;;;-4.11;87.20;146315.72;5061048;28;20051;-68
2022/12/27 11:23:59;;;;;;;18.63;13.30;;;;;;;-4.07;85.87;146325.88;5073379;28;20252;-69
2022/12/27 11:26:25;;;;;;;;;;;;;;;-4.17;87.18;146301.78;5065221;28;20043;-68
2022/12/27 11:28:53;;;;;;;17.25;12.88;;;;;;;-4.01;86.62;146341.06;5064703;28;19904;-69
2022/12/27 11:31:31;;;;;;;19.67;13.73;;;;;;;-4.02;86.54;146337.25;5064748;28;20047;-69
2022/12/27 11:34:00;;;;;;;18.33;12.55;;;;;;;-4.00;87.08;146342.34;5045182;28;20052;-68
2022/12/27 11:36:28;;;;;;;17.70;12.15;;;;;;;-4.15;87.44;146305.59;5060569;28;20020;-68
2022/12/27 11:38:54;;;;;;;19.25;12.60;;;;;;;-3.90;87.52;146366.44;5064829;28;20300;-67
2022/12/27 11:41:29;;;;;;;17.27;12.20;;;;;;;-3.93;87.84;146358.78;5064409;28;20101;-68
2022/12/27 11:44:24;;;;;;;17.33;12.10;;;;;;;-3.99;87.73;146344.84;5063800;28;20029;-69
2022/12/27 11:46:54;;;;;;;17.92;13.10;;;;;;;-3.87;87.28;146374.03;5064022;28;20242;-69
2022/12/27 11:49:33;;;;;;;16.30;11.95;;;;;;;-3.96;87.69;146351.19;5064369;28;20325;-69
2022/12/27 11:53:00;;;;;;;18.48;12.48;;;;;;;-3.82;88.01;146387.97;5044518;28;20032;-68
2022/12/27 11:55:36;;;;;;;16.73;12.70;;;;;;;-3.76;87.73;146400.59;5032535;28;20104;-69
2022/12/27 11:58:14;;;;;;;17.33;12.88;;;;;;;-3.66;87.25;146425.97;5044474;28;20052;-68
2022/12/27 12:00:56;;;;;;;19.05;12.77;;;;;;;-3.96;87.99;146352.50;5061427;28;20094;-69
2022/12/27 12:03:33;;;;;;;;;;;;;;;-3.74;87.13;146406.94;5064246;28;20044;-69
2022/12/27 12:06:01;;;;;;;18.65;13.23;;;;;;;-3.91;87.85;146365.13;5064078;28;19939;-69
2022/12/27 12:08:58;;;;;;;16.52;12.45;;;;;;;-3.83;87.61;146384.16;5064205;28;20032;-68
2022/12/27 12:12:00;;;;;;;16.55;12.90;;;;;;;-3.99;87.62;146344.84;5062773;28;20096;-68
2022/12/27 12:14:45;;;;;;;18.65;13.35;;;;;;;-3.67;87.59;146423.44;5063940;28;20021;-69
2022/12/27 12:17:10;;;;;;;17.27;12.85;;;;;;;-3.66;87.65;146425.97;5063404;28;20041;-67
2022/12/27 12:19:59;;;;;;;16.35;12.48;;;;;;;-3.90;87.27;146366.44;5063941;28;20063;-68
2022/12/27 12:22:49;;;;;;;15.85;12.43;;;;;;;-3.70;88.08;146417.09;5057544;28;20246;-68
2022/12/27 12:25:51;;;;;;;16.40;11.73;;;;;;;-3.94;88.56;146357.53;5043647;28;20139;-68
2022/12/27 12:28:36;;;;;;;18.23;12.20;;;;;;;-3.79;88.67;146393.00;5043445;28;20405;-69
2022/12/27 12:31:39;;;;;;;18.27;12.55;;;;;;;-3.67;88.18;146423.44;5043445;28;20027;-68
2022/12/27 12:34:19;;;;;;;17.75;12.43;;;;;;;-3.64;88.30;146432.28;5043739;28;20037;-68
2022/12/27 12:37:24;;;;;;;16.70;12.48;;;;;;;-3.69;88.74;146418.34;5061742;28;20074;-68
2022/12/27 12:40:02;;;;;;;19.15;12.52;;;;;;;-3.78;88.87;146396.81;5042908;28;20052;-69
2022/12/27 12:42:47;;;;;;;20.90;13.68;;;;;;;-3.69;88.83;146418.34;5059349;28;20021;-67
2022/12/27 12:45:54;;;;;;;16.08;11.02;;;;;;;-3.87;89.56;146375.28;5063299;28;20032;-69
2022/12/27 12:48:41;;;;;;;20.30;13.80;;;;;;;-3.67;89.08;146424.69;5063104;28;20021;-69
2022/12/27 12:51:13;;;;;;;16.70;12.25;;;;;;;-3.63;88.88;146433.56;5063266;28;20021;-68
2022/12/27 12:53:50;;;;;;;;;;;;;;;-3.56;88.90;146450.03;5059347;28;20067;-68
2022/12/27 12:56:40;;;;;;;15.50;12.32;;;;;;;-3.70;88.98;146417.09;5063443;28;19905;-68
2022/12/27 12:59:33;;;;;;;18.15;13.30;;;;;;;-3.56;89.21;146451.31;5063034;28;20043;-68
2022/12/27 13:02:07;;;;;;;18.33;12.82;;;;;;;-3.54;89.41;146456.38;5062752;28;20048;-68
2022/12/27 13:04:51;;;;;;;17.90;13.73;;;;;;;-3.42;89.37;146484.25;5063025;28;20040;-69
2022/12/27 13:07:23;;;;;;;18.77;14.13;;;;;;;-3.44;89.00;146480.44;5043056;28;20026;-67
2022/12/27 13:10:13;;;;;;;18.45;13.02;;;;;;;-3.57;89.68;146448.78;5061462;28;20024;-69
2022/12/27 13:12:58;;;;;;;17.80;12.90;;;;;;;-3.55;89.82;146453.88;5063048;28;20029;-68
2022/12/27 13:15:59;;;;;;;18.38;13.38;;;;;;;-3.50;89.59;146465.25;5062985;28;20345;-70